Terminal Aerodrome Forecast
Issued by NWS Wilmington, NC

Home | Current Version | Previous Version | Text Only | Print | Product List | Glossary On
Versions: 1 2 3 4 5 6 7 8 9 10 11 12 13 14
136
FTUS42 KILM 220522
TAFMYR
TAF
KMYR 220522Z 2206/2306 VRB03KT P6SM FEW200
      TEMPO 2209/2212 2SM BR BKN150
     FM221800 09006KT P6SM SCT050
     FM222300 13007KT P6SM FEW200
     FM230300 VRB03KT P6SM FEW200=

USA.gov is the U.S. government's official web portal to all federal, state and local government web resources and services.